This is the latest recevied weather packets stored in our database for station/object DH0DM-13. If no packets are shown the sender has not sent any weather packets the latest 10 day(s).
| Time | Temp. | Humidity | Pressure | Rain* | Wind** | Luminosity | Snow |
|---|---|---|---|---|---|---|---|
| 1777923722 | 15° C | 77% | 985.7 hPa | 0 mm | 0 m/s | - | - |
| 1777923121 | 15° C | 76% | 985.8 hPa | 0 mm | 0 m/s | - | - |
| 1777922520 | 15° C | 76% | 985.7 hPa | 0 mm | 0 m/s | - | - |
| 1777921919 | 15.56° C | 74% | 985.6 hPa | 0 mm | 0.45 m/s, 213° | - | - |
| 1777921318 | 16.11° C | 72% | 985.7 hPa | 0 mm | 0.45 m/s, 105° | - | - |
| 1777920717 | 16.11° C | 71% | 985.6 hPa | 0 mm | 0 m/s | - | - |
| 1777920116 | 16.11° C | 71% | 985.5 hPa | 0 mm | 0 m/s | - | - |
| 1777919516 | 16.67° C | 69% | 985.5 hPa | 0 mm | 0 m/s | - | - |
| 1777918915 | 17.78° C | 66% | 985.6 hPa | 0 mm | 0 m/s | - | - |
| 1777918314 | 18.33° C | 63% | 985.6 hPa | 0 mm | 0.45 m/s, 238° | - | - |
| 1777917713 | 18.89° C | 60% | 985.5 hPa | 0 mm | 0 m/s | - | - |
| 1777917112 | 19.44° C | 57% | 985.5 hPa | 0 mm | 0 m/s | - | - |
| 1777916511 | 20.56° C | 55% | 985.5 hPa | 0 mm | 0.89 m/s, 297° | - | - |
| 1777915910 | 21.11° C | 53% | 985.5 hPa | 0 mm | 1.34 m/s, 282° | - | - |
| 1777915309 | 21.67° C | 50% | 985.3 hPa | 0 mm | 1.79 m/s, 279° | - | - |
| 1777914708 | 22.22° C | 48% | 985.3 hPa | 0 mm | 0.89 m/s, 239° | - | - |
| 1777914107 | 22.22° C | 48% | 985.6 hPa | 0 mm | 0.45 m/s, 254° | - | - |
| 1777913507 | 22.22° C | 43% | 985.6 hPa | 0 mm | 4.92 m/s, 259° | - | - |
| 1777912906 | 23.33° C | 43% | 985.6 hPa | 0 mm | 0.89 m/s, 249° | - | - |
| 1777912305 | 22.78° C | 44% | 985.7 hPa | 0 mm | 0 m/s | - | - |
| 1777911704 | 22.22° C | 46% | 985.6 hPa | 0 mm | 1.79 m/s, 286° | - | - |
| 1777911103 | 22.22° C | 45% | 985.7 hPa | 0 mm | 4.02 m/s, 202° | - | - |
| 1777910502 | 22.78° C | 43% | 985.7 hPa | 0 mm | 2.24 m/s, 268° | - | - |
| 1777909901 | 22.78° C | 42% | 985.5 hPa | 0 mm | 4.02 m/s, 231° | - | - |
| 1777909300 | 22.22° C | 43% | 985.5 hPa | 0 mm | 5.36 m/s, 241° | - | - |
* Rain since midnight (hover to see other rain measurements)
** Current wind speed in m/s (hover to see current wind gust speed)